sensor_id;sensor_type;location;lat;lon;timestamp;P1;durP1;ratioP1;P2;durP2;ratioP2
11653;SDS011;5883;48.818;9.114;2023-10-09T00:02:23;12.63;;;4.13;;
11653;SDS011;5883;48.818;9.114;2023-10-09T00:05:09;13.98;;;4.07;;
11653;SDS011;5883;48.818;9.114;2023-10-09T00:08:03;11.43;;;4.25;;
11653;SDS011;5883;48.818;9.114;2023-10-09T00:10:48;9.02;;;3.97;;
11653;SDS011;5883;48.818;9.114;2023-10-09T00:13:37;7.57;;;3.40;;
11653;SDS011;5883;48.818;9.114;2023-10-09T00:16:22;13.38;;;4.55;;
11653;SDS011;5883;48.818;9.114;2023-10-09T00:19:18;18.13;;;4.80;;
11653;SDS011;5883;48.818;9.114;2023-10-09T00:22:05;8.75;;;3.70;;
11653;SDS011;5883;48.818;9.114;2023-10-09T00:24:54;22.02;;;4.20;;
11653;SDS011;5883;48.818;9.114;2023-10-09T00:27:53;20.80;;;5.55;;
11653;SDS011;5883;48.818;9.114;2023-10-09T00:30:40;14.73;;;3.92;;
11653;SDS011;5883;48.818;9.114;2023-10-09T00:33:25;13.05;;;4.15;;
11653;SDS011;5883;48.818;9.114;2023-10-09T00:36:12;12.50;;;4.68;;
11653;SDS011;5883;48.818;9.114;2023-10-09T00:39:04;13.15;;;3.97;;
11653;SDS011;5883;48.818;9.114;2023-10-09T00:42:01;13.95;;;4.07;;
11653;SDS011;5883;48.818;9.114;2023-10-09T00:44:50;15.85;;;4.68;;
11653;SDS011;5883;48.818;9.114;2023-10-09T00:47:35;16.65;;;4.85;;
11653;SDS011;5883;48.818;9.114;2023-10-09T00:50:24;11.82;;;4.53;;
11653;SDS011;5883;48.818;9.114;2023-10-09T00:53:10;17.90;;;5.35;;
11653;SDS011;5883;48.818;9.114;2023-10-09T00:56:03;12.02;;;4.47;;
11653;SDS011;5883;48.818;9.114;2023-10-09T00:58:55;13.43;;;4.93;;
11653;SDS011;5883;48.818;9.114;2023-10-09T01:01:44;11.85;;;4.28;;
11653;SDS011;5883;48.818;9.114;2023-10-09T01:04:39;15.70;;;4.47;;
11653;SDS011;5883;48.818;9.114;2023-10-09T01:07:26;12.10;;;4.72;;
11653;SDS011;5883;48.818;9.114;2023-10-09T01:10:15;20.95;;;4.75;;
11653;SDS011;5883;48.818;9.114;2023-10-09T01:13:03;15.40;;;4.07;;
11653;SDS011;5883;48.818;9.114;2023-10-09T01:15:48;14.13;;;4.93;;
11653;SDS011;5883;48.818;9.114;2023-10-09T01:18:35;20.70;;;4.70;;
11653;SDS011;5883;48.818;9.114;2023-10-09T01:21:24;12.93;;;4.10;;
11653;SDS011;5883;48.818;9.114;2023-10-09T01:24:11;17.83;;;4.95;;
11653;SDS011;5883;48.818;9.114;2023-10-09T01:26:56;10.98;;;4.47;;
11653;SDS011;5883;48.818;9.114;2023-10-09T01:29:43;11.80;;;4.57;;
11653;SDS011;5883;48.818;9.114;2023-10-09T01:32:29;15.57;;;4.47;;
11653;SDS011;5883;48.818;9.114;2023-10-09T01:35:15;21.40;;;4.60;;
11653;SDS011;5883;48.818;9.114;2023-10-09T01:38:05;16.17;;;4.05;;
11653;SDS011;5883;48.818;9.114;2023-10-09T01:40:58;20.23;;;4.35;;
11653;SDS011;5883;48.818;9.114;2023-10-09T01:43:50;19.20;;;4.57;;
11653;SDS011;5883;48.818;9.114;2023-10-09T01:46:40;16.25;;;5.07;;
11653;SDS011;5883;48.818;9.114;2023-10-09T01:49:25;12.35;;;4.55;;
11653;SDS011;5883;48.818;9.114;2023-10-09T01:52:16;13.43;;;4.68;;
11653;SDS011;5883;48.818;9.114;2023-10-09T01:55:01;15.82;;;4.40;;
11653;SDS011;5883;48.818;9.114;2023-10-09T01:57:58;15.18;;;5.47;;
11653;SDS011;5883;48.818;9.114;2023-10-09T02:00:49;13.18;;;4.70;;
11653;SDS011;5883;48.818;9.114;2023-10-09T02:03:38;16.88;;;4.63;;
11653;SDS011;5883;48.818;9.114;2023-10-09T02:06:25;17.23;;;5.05;;
11653;SDS011;5883;48.818;9.114;2023-10-09T02:09:15;17.33;;;5.25;;
11653;SDS011;5883;48.818;9.114;2023-10-09T02:12:06;14.13;;;4.22;;
11653;SDS011;5883;48.818;9.114;2023-10-09T02:14:53;14.23;;;4.47;;
11653;SDS011;5883;48.818;9.114;2023-10-09T02:17:39;11.02;;;4.13;;
11653;SDS011;5883;48.818;9.114;2023-10-09T02:20:35;8.75;;;3.60;;
11653;SDS011;5883;48.818;9.114;2023-10-09T02:23:21;12.98;;;4.63;;
11653;SDS011;5883;48.818;9.114;2023-10-09T02:26:16;10.65;;;4.35;;
11653;SDS011;5883;48.818;9.114;2023-10-09T02:29:03;14.07;;;4.65;;
11653;SDS011;5883;48.818;9.114;2023-10-09T02:32:00;12.38;;;4.43;;
11653;SDS011;5883;48.818;9.114;2023-10-09T02:34:57;14.23;;;4.57;;
11653;SDS011;5883;48.818;9.114;2023-10-09T02:37:52;11.43;;;3.70;;
11653;SDS011;5883;48.818;9.114;2023-10-09T02:40:37;10.85;;;4.95;;
11653;SDS011;5883;48.818;9.114;2023-10-09T02:43:47;15.48;;;4.40;;
11653;SDS011;5883;48.818;9.114;2023-10-09T02:46:33;10.50;;;3.67;;
11653;SDS011;5883;48.818;9.114;2023-10-09T02:49:20;8.38;;;4.40;;
11653;SDS011;5883;48.818;9.114;2023-10-09T02:52:05;13.23;;;4.30;;
11653;SDS011;5883;48.818;9.114;2023-10-09T02:54:51;12.18;;;4.25;;
11653;SDS011;5883;48.818;9.114;2023-10-09T02:57:43;12.35;;;4.82;;
11653;SDS011;5883;48.818;9.114;2023-10-09T03:00:29;16.33;;;5.10;;
11653;SDS011;5883;48.818;9.114;2023-10-09T03:03:15;13.57;;;5.28;;
11653;SDS011;5883;48.818;9.114;2023-10-09T03:06:03;21.58;;;4.93;;
11653;SDS011;5883;48.818;9.114;2023-10-09T03:08:54;12.50;;;4.55;;
11653;SDS011;5883;48.818;9.114;2023-10-09T03:11:39;16.73;;;4.82;;
11653;SDS011;5883;48.818;9.114;2023-10-09T03:14:25;15.80;;;4.40;;
11653;SDS011;5883;48.818;9.114;2023-10-09T03:17:10;13.90;;;4.47;;
11653;SDS011;5883;48.818;9.114;2023-10-09T03:19:56;15.68;;;4.85;;
11653;SDS011;5883;48.818;9.114;2023-10-09T03:22:44;14.48;;;4.68;;
11653;SDS011;5883;48.818;9.114;2023-10-09T03:25:31;14.68;;;4.45;;
11653;SDS011;5883;48.818;9.114;2023-10-09T03:28:16;15.02;;;4.55;;
11653;SDS011;5883;48.818;9.114;2023-10-09T03:31:01;12.98;;;4.05;;
11653;SDS011;5883;48.818;9.114;2023-10-09T03:33:46;12.68;;;3.83;;
11653;SDS011;5883;48.818;9.114;2023-10-09T03:36:32;13.93;;;4.55;;
11653;SDS011;5883;48.818;9.114;2023-10-09T03:39:22;14.48;;;5.45;;
11653;SDS011;5883;48.818;9.114;2023-10-09T03:42:18;14.88;;;4.40;;
11653;SDS011;5883;48.818;9.114;2023-10-09T03:45:04;15.52;;;4.38;;
11653;SDS011;5883;48.818;9.114;2023-10-09T03:47:56;12.75;;;4.43;;
11653;SDS011;5883;48.818;9.114;2023-10-09T03:50:46;15.90;;;5.30;;
11653;SDS011;5883;48.818;9.114;2023-10-09T03:53:31;14.07;;;5.13;;
11653;SDS011;5883;48.818;9.114;2023-10-09T03:56:17;16.88;;;5.28;;
11653;SDS011;5883;48.818;9.114;2023-10-09T03:59:05;9.70;;;4.35;;
11653;SDS011;5883;48.818;9.114;2023-10-09T04:01:50;17.23;;;4.75;;
11653;SDS011;5883;48.818;9.114;2023-10-09T04:04:36;16.13;;;4.72;;
11653;SDS011;5883;48.818;9.114;2023-10-09T04:07:21;17.00;;;5.43;;
11653;SDS011;5883;48.818;9.114;2023-10-09T04:10:06;11.85;;;4.32;;
11653;SDS011;5883;48.818;9.114;2023-10-09T04:13:18;17.15;;;4.80;;
11653;SDS011;5883;48.818;9.114;2023-10-09T04:16:06;15.90;;;4.60;;
11653;SDS011;5883;48.818;9.114;2023-10-09T04:18:55;17.10;;;4.88;;
11653;SDS011;5883;48.818;9.114;2023-10-09T04:21:41;15.10;;;4.53;;
11653;SDS011;5883;48.818;9.114;2023-10-09T04:24:25;12.15;;;4.60;;
11653;SDS011;5883;48.818;9.114;2023-10-09T04:27:11;10.65;;;4.97;;
11653;SDS011;5883;48.818;9.114;2023-10-09T04:29:58;13.35;;;4.82;;
11653;SDS011;5883;48.818;9.114;2023-10-09T04:32:44;12.57;;;5.38;;
11653;SDS011;5883;48.818;9.114;2023-10-09T04:35:30;15.80;;;4.47;;
11653;SDS011;5883;48.818;9.114;2023-10-09T04:38:16;13.98;;;5.05;;
11653;SDS011;5883;48.818;9.114;2023-10-09T04:41:03;19.98;;;4.75;;
11653;SDS011;5883;48.818;9.114;2023-10-09T04:43:49;12.77;;;4.13;;
11653;SDS011;5883;48.818;9.114;2023-10-09T04:46:36;14.02;;;4.78;;
11653;SDS011;5883;48.818;9.114;2023-10-09T04:49:27;15.50;;;5.07;;
11653;SDS011;5883;48.818;9.114;2023-10-09T04:52:12;11.60;;;5.18;;
11653;SDS011;5883;48.818;9.114;2023-10-09T04:55:04;11.68;;;4.35;;
11653;SDS011;5883;48.818;9.114;2023-10-09T04:58:00;14.52;;;4.55;;
11653;SDS011;5883;48.818;9.114;2023-10-09T05:00:46;15.93;;;5.00;;
11653;SDS011;5883;48.818;9.114;2023-10-09T05:03:48;11.07;;;4.35;;
11653;SDS011;5883;48.818;9.114;2023-10-09T05:06:40;15.90;;;4.40;;
11653;SDS011;5883;48.818;9.114;2023-10-09T05:09:38;14.20;;;4.13;;
11653;SDS011;5883;48.818;9.114;2023-10-09T05:12:39;15.95;;;5.80;;
11653;SDS011;5883;48.818;9.114;2023-10-09T05:15:30;20.42;;;5.40;;
11653;SDS011;5883;48.818;9.114;2023-10-09T05:18:18;12.38;;;5.30;;
11653;SDS011;5883;48.818;9.114;2023-10-09T05:21:12;15.70;;;5.15;;
11653;SDS011;5883;48.818;9.114;2023-10-09T05:24:15;19.88;;;6.32;;
11653;SDS011;5883;48.818;9.114;2023-10-09T05:27:03;15.45;;;6.00;;
11653;SDS011;5883;48.818;9.114;2023-10-09T05:30:01;26.55;;;6.25;;
11653;SDS011;5883;48.818;9.114;2023-10-09T05:32:56;17.70;;;6.20;;
11653;SDS011;5883;48.818;9.114;2023-10-09T05:36:02;17.80;;;5.05;;
11653;SDS011;5883;48.818;9.114;2023-10-09T05:38:59;18.85;;;5.68;;
11653;SDS011;5883;48.818;9.114;2023-10-09T05:42:01;17.42;;;5.22;;
11653;SDS011;5883;48.818;9.114;2023-10-09T05:44:53;13.77;;;5.07;;
11653;SDS011;5883;48.818;9.114;2023-10-09T05:48:01;12.07;;;5.03;;
11653;SDS011;5883;48.818;9.114;2023-10-09T05:50:50;12.65;;;5.43;;
11653;SDS011;5883;48.818;9.114;2023-10-09T05:53:49;18.23;;;4.72;;
11653;SDS011;5883;48.818;9.114;2023-10-09T05:56:56;10.43;;;5.07;;
11653;SDS011;5883;48.818;9.114;2023-10-09T06:00:05;19.05;;;5.35;;
11653;SDS011;5883;48.818;9.114;2023-10-09T06:03:07;16.08;;;4.60;;
11653;SDS011;5883;48.818;9.114;2023-10-09T06:06:08;18.27;;;5.68;;
11653;SDS011;5883;48.818;9.114;2023-10-09T06:09:02;15.82;;;5.35;;
11653;SDS011;5883;48.818;9.114;2023-10-09T06:12:06;18.83;;;4.65;;
11653;SDS011;5883;48.818;9.114;2023-10-09T06:15:17;11.38;;;4.00;;
11653;SDS011;5883;48.818;9.114;2023-10-09T06:18:15;15.75;;;4.75;;
11653;SDS011;5883;48.818;9.114;2023-10-09T06:21:17;18.88;;;5.05;;
11653;SDS011;5883;48.818;9.114;2023-10-09T06:24:18;13.55;;;5.03;;
11653;SDS011;5883;48.818;9.114;2023-10-09T06:27:08;15.13;;;4.90;;
11653;SDS011;5883;48.818;9.114;2023-10-09T06:29:57;18.65;;;6.07;;
11653;SDS011;5883;48.818;9.114;2023-10-09T06:32:56;10.27;;;4.10;;
11653;SDS011;5883;48.818;9.114;2023-10-09T06:36:03;17.95;;;4.40;;
11653;SDS011;5883;48.818;9.114;2023-10-09T06:38:52;14.13;;;4.30;;
11653;SDS011;5883;48.818;9.114;2023-10-09T06:41:57;20.38;;;5.10;;
11653;SDS011;5883;48.818;9.114;2023-10-09T06:44:54;12.60;;;4.55;;
11653;SDS011;5883;48.818;9.114;2023-10-09T06:47:39;13.40;;;4.45;;
11653;SDS011;5883;48.818;9.114;2023-10-09T06:50:25;17.23;;;4.88;;
11653;SDS011;5883;48.818;9.114;2023-10-09T06:53:09;17.50;;;4.85;;
11653;SDS011;5883;48.818;9.114;2023-10-09T06:56:11;13.15;;;5.00;;
11653;SDS011;5883;48.818;9.114;2023-10-09T06:59:06;16.98;;;5.45;;
11653;SDS011;5883;48.818;9.114;2023-10-09T07:02:00;13.05;;;4.72;;
11653;SDS011;5883;48.818;9.114;2023-10-09T07:05:09;11.23;;;5.00;;
11653;SDS011;5883;48.818;9.114;2023-10-09T07:08:01;16.80;;;4.95;;
11653;SDS011;5883;48.818;9.114;2023-10-09T07:11:05;15.50;;;5.30;;
11653;SDS011;5883;48.818;9.114;2023-10-09T07:14:22;14.02;;;5.15;;
11653;SDS011;5883;48.818;9.114;2023-10-09T07:17:38;16.88;;;4.70;;
11653;SDS011;5883;48.818;9.114;2023-10-09T07:20:29;18.08;;;5.13;;
11653;SDS011;5883;48.818;9.114;2023-10-09T07:23:28;14.43;;;4.75;;
11653;SDS011;5883;48.818;9.114;2023-10-09T07:26:16;16.05;;;5.20;;
11653;SDS011;5883;48.818;9.114;2023-10-09T07:29:07;21.90;;;6.53;;
11653;SDS011;5883;48.818;9.114;2023-10-09T07:32:05;14.30;;;5.72;;
11653;SDS011;5883;48.818;9.114;2023-10-09T07:34:57;18.73;;;5.75;;
11653;SDS011;5883;48.818;9.114;2023-10-09T07:37:43;20.60;;;5.03;;
11653;SDS011;5883;48.818;9.114;2023-10-09T07:40:34;15.27;;;4.63;;
11653;SDS011;5883;48.818;9.114;2023-10-09T07:43:38;12.68;;;5.68;;
11653;SDS011;5883;48.818;9.114;2023-10-09T07:46:28;16.50;;;5.20;;
11653;SDS011;5883;48.818;9.114;2023-10-09T07:49:18;14.98;;;4.78;;
11653;SDS011;5883;48.818;9.114;2023-10-09T07:52:10;16.73;;;5.40;;
11653;SDS011;5883;48.818;9.114;2023-10-09T07:54:56;15.50;;;4.57;;
11653;SDS011;5883;48.818;9.114;2023-10-09T07:57:49;14.25;;;4.57;;
11653;SDS011;5883;48.818;9.114;2023-10-09T08:00:35;16.23;;;5.10;;
11653;SDS011;5883;48.818;9.114;2023-10-09T08:03:33;15.60;;;4.78;;
11653;SDS011;5883;48.818;9.114;2023-10-09T08:06:18;24.10;;;5.15;;
11653;SDS011;5883;48.818;9.114;2023-10-09T08:09:23;14.43;;;4.15;;
11653;SDS011;5883;48.818;9.114;2023-10-09T08:12:30;15.57;;;5.35;;
11653;SDS011;5883;48.818;9.114;2023-10-09T08:15:24;16.42;;;6.43;;
11653;SDS011;5883;48.818;9.114;2023-10-09T08:18:17;19.05;;;5.82;;
11653;SDS011;5883;48.818;9.114;2023-10-09T08:21:11;15.20;;;5.78;;
11653;SDS011;5883;48.818;9.114;2023-10-09T08:24:26;19.35;;;5.65;;
11653;SDS011;5883;48.818;9.114;2023-10-09T08:27:25;19.73;;;5.90;;
11653;SDS011;5883;48.818;9.114;2023-10-09T08:30:30;20.42;;;4.55;;
11653;SDS011;5883;48.818;9.114;2023-10-09T08:33:33;9.98;;;4.43;;
11653;SDS011;5883;48.818;9.114;2023-10-09T08:36:25;15.00;;;5.32;;
11653;SDS011;5883;48.818;9.114;2023-10-09T08:39:12;23.23;;;5.35;;
11653;SDS011;5883;48.818;9.114;2023-10-09T08:42:02;17.27;;;4.88;;
11653;SDS011;5883;48.818;9.114;2023-10-09T08:44:51;18.63;;;4.78;;
11653;SDS011;5883;48.818;9.114;2023-10-09T08:47:36;25.85;;;4.53;;
11653;SDS011;5883;48.818;9.114;2023-10-09T08:50:21;16.60;;;4.85;;
11653;SDS011;5883;48.818;9.114;2023-10-09T08:53:06;14.82;;;4.55;;
11653;SDS011;5883;48.818;9.114;2023-10-09T08:55:51;25.73;;;5.47;;
11653;SDS011;5883;48.818;9.114;2023-10-09T08:58:37;24.20;;;4.97;;
11653;SDS011;5883;48.818;9.114;2023-10-09T09:01:24;12.35;;;5.05;;
11653;SDS011;5883;48.818;9.114;2023-10-09T09:04:09;14.43;;;4.65;;
11653;SDS011;5883;48.818;9.114;2023-10-09T09:06:54;19.48;;;5.38;;
11653;SDS011;5883;48.818;9.114;2023-10-09T09:09:39;16.00;;;4.90;;
11653;SDS011;5883;48.818;9.114;2023-10-09T09:12:38;20.90;;;5.72;;
11653;SDS011;5883;48.818;9.114;2023-10-09T09:15:26;18.15;;;5.28;;
11653;SDS011;5883;48.818;9.114;2023-10-09T09:18:12;18.42;;;4.82;;
11653;SDS011;5883;48.818;9.114;2023-10-09T09:21:00;28.85;;;5.55;;
11653;SDS011;5883;48.818;9.114;2023-10-09T09:23:49;17.92;;;5.47;;
11653;SDS011;5883;48.818;9.114;2023-10-09T09:26:38;27.10;;;4.45;;
11653;SDS011;5883;48.818;9.114;2023-10-09T09:29:38;30.48;;;4.90;;
11653;SDS011;5883;48.818;9.114;2023-10-09T09:32:28;17.15;;;3.78;;
11653;SDS011;5883;48.818;9.114;2023-10-09T09:35:20;25.42;;;4.13;;
11653;SDS011;5883;48.818;9.114;2023-10-09T09:38:11;21.15;;;5.15;;
11653;SDS011;5883;48.818;9.114;2023-10-09T09:41:01;24.75;;;5.75;;
11653;SDS011;5883;48.818;9.114;2023-10-09T09:43:52;16.02;;;4.43;;
11653;SDS011;5883;48.818;9.114;2023-10-09T09:46:39;18.63;;;5.53;;
11653;SDS011;5883;48.818;9.114;2023-10-09T09:49:28;24.98;;;4.07;;
11653;SDS011;5883;48.818;9.114;2023-10-09T09:52:16;19.42;;;3.95;;
11653;SDS011;5883;48.818;9.114;2023-10-09T09:55:02;13.30;;;4.03;;
11653;SDS011;5883;48.818;9.114;2023-10-09T09:57:47;18.23;;;4.30;;
11653;SDS011;5883;48.818;9.114;2023-10-09T10:00:35;16.45;;;3.55;;
11653;SDS011;5883;48.818;9.114;2023-10-09T10:03:29;18.88;;;4.40;;
11653;SDS011;5883;48.818;9.114;2023-10-09T10:06:19;14.85;;;4.18;;
11653;SDS011;5883;48.818;9.114;2023-10-09T10:09:04;24.27;;;4.63;;
11653;SDS011;5883;48.818;9.114;2023-10-09T10:11:50;19.23;;;3.80;;
11653;SDS011;5883;48.818;9.114;2023-10-09T10:17:47;21.65;;;4.68;;
11653;SDS011;5883;48.818;9.114;2023-10-09T10:21:10;21.27;;;4.45;;
11653;SDS011;5883;48.818;9.114;2023-10-09T10:24:00;20.52;;;4.15;;
11653;SDS011;5883;48.818;9.114;2023-10-09T10:26:56;24.25;;;4.43;;
11653;SDS011;5883;48.818;9.114;2023-10-09T10:33:08;17.40;;;4.22;;
11653;SDS011;5883;48.818;9.114;2023-10-09T10:35:59;18.45;;;3.35;;
11653;SDS011;5883;48.818;9.114;2023-10-09T10:38:55;16.17;;;3.92;;
11653;SDS011;5883;48.818;9.114;2023-10-09T10:41:56;16.52;;;3.97;;
11653;SDS011;5883;48.818;9.114;2023-10-09T10:44:43;14.05;;;3.72;;
11653;SDS011;5883;48.818;9.114;2023-10-09T10:47:28;18.48;;;3.80;;
11653;SDS011;5883;48.818;9.114;2023-10-09T10:50:19;21.20;;;3.25;;
11653;SDS011;5883;48.818;9.114;2023-10-09T10:53:19;11.55;;;3.33;;
11653;SDS011;5883;48.818;9.114;2023-10-09T10:56:05;20.77;;;3.50;;
11653;SDS011;5883;48.818;9.114;2023-10-09T10:59:03;28.10;;;4.45;;
11653;SDS011;5883;48.818;9.114;2023-10-09T11:01:57;11.73;;;3.08;;
11653;SDS011;5883;48.818;9.114;2023-10-09T11:04:57;16.00;;;3.40;;
11653;SDS011;5883;48.818;9.114;2023-10-09T11:07:57;9.30;;;3.47;;
11653;SDS011;5883;48.818;9.114;2023-10-09T11:10:44;12.57;;;3.80;;
11653;SDS011;5883;48.818;9.114;2023-10-09T11:13:34;12.63;;;3.63;;
11653;SDS011;5883;48.818;9.114;2023-10-09T11:16:37;13.90;;;3.35;;
11653;SDS011;5883;48.818;9.114;2023-10-09T11:19:31;16.80;;;3.35;;
11653;SDS011;5883;48.818;9.114;2023-10-09T11:22:23;12.35;;;2.80;;
11653;SDS011;5883;48.818;9.114;2023-10-09T11:25:20;6.63;;;2.42;;
11653;SDS011;5883;48.818;9.114;2023-10-09T11:28:09;9.80;;;3.05;;
11653;SDS011;5883;48.818;9.114;2023-10-09T11:31:11;6.97;;;3.33;;
11653;SDS011;5883;48.818;9.114;2023-10-09T11:33:59;7.45;;;2.65;;
11653;SDS011;5883;48.818;9.114;2023-10-09T11:36:45;8.98;;;2.90;;
11653;SDS011;5883;48.818;9.114;2023-10-09T11:39:37;6.80;;;2.88;;
11653;SDS011;5883;48.818;9.114;2023-10-09T11:42:34;8.93;;;2.75;;
11653;SDS011;5883;48.818;9.114;2023-10-09T11:45:32;8.00;;;3.13;;
11653;SDS011;5883;48.818;9.114;2023-10-09T11:48:21;11.32;;;4.18;;
11653;SDS011;5883;48.818;9.114;2023-10-09T11:51:13;10.52;;;3.42;;
11653;SDS011;5883;48.818;9.114;2023-10-09T11:54:03;9.77;;;3.83;;
11653;SDS011;5883;48.818;9.114;2023-10-09T11:56:47;7.05;;;3.35;;
11653;SDS011;5883;48.818;9.114;2023-10-09T11:59:32;7.05;;;3.17;;
11653;SDS011;5883;48.818;9.114;2023-10-09T12:02:21;7.22;;;3.53;;
11653;SDS011;5883;48.818;9.114;2023-10-09T12:05:06;12.73;;;3.80;;
11653;SDS011;5883;48.818;9.114;2023-10-09T12:07:53;8.27;;;3.00;;
11653;SDS011;5883;48.818;9.114;2023-10-09T12:10:39;8.68;;;3.53;;
11653;SDS011;5883;48.818;9.114;2023-10-09T12:13:24;7.10;;;3.85;;
11653;SDS011;5883;48.818;9.114;2023-10-09T12:16:10;10.13;;;3.22;;
11653;SDS011;5883;48.818;9.114;2023-10-09T12:18:55;12.27;;;4.18;;
11653;SDS011;5883;48.818;9.114;2023-10-09T12:21:40;13.65;;;4.75;;
11653;SDS011;5883;48.818;9.114;2023-10-09T12:24:28;10.80;;;4.25;;
11653;SDS011;5883;48.818;9.114;2023-10-09T12:27:14;14.10;;;4.43;;
11653;SDS011;5883;48.818;9.114;2023-10-09T12:30:04;10.43;;;3.88;;
11653;SDS011;5883;48.818;9.114;2023-10-09T12:32:49;9.32;;;4.35;;
11653;SDS011;5883;48.818;9.114;2023-10-09T12:35:37;11.50;;;4.55;;
11653;SDS011;5883;48.818;9.114;2023-10-09T12:38:22;10.68;;;4.35;;
11653;SDS011;5883;48.818;9.114;2023-10-09T12:41:16;10.07;;;4.07;;
11653;SDS011;5883;48.818;9.114;2023-10-09T12:44:04;13.00;;;3.97;;
11653;SDS011;5883;48.818;9.114;2023-10-09T12:46:55;9.68;;;3.78;;
11653;SDS011;5883;48.818;9.114;2023-10-09T12:49:40;10.60;;;4.57;;
11653;SDS011;5883;48.818;9.114;2023-10-09T12:52:25;9.73;;;4.03;;
11653;SDS011;5883;48.818;9.114;2023-10-09T12:55:13;11.23;;;3.95;;
11653;SDS011;5883;48.818;9.114;2023-10-09T12:58:04;8.65;;;4.30;;
11653;SDS011;5883;48.818;9.114;2023-10-09T13:00:51;7.68;;;4.40;;
11653;SDS011;5883;48.818;9.114;2023-10-09T13:03:35;7.10;;;4.45;;
11653;SDS011;5883;48.818;9.114;2023-10-09T13:06:21;11.52;;;4.57;;
11653;SDS011;5883;48.818;9.114;2023-10-09T13:09:08;12.20;;;4.18;;
11653;SDS011;5883;48.818;9.114;2023-10-09T13:11:53;9.32;;;4.05;;
11653;SDS011;5883;48.818;9.114;2023-10-09T13:14:44;9.57;;;4.57;;
11653;SDS011;5883;48.818;9.114;2023-10-09T13:17:33;9.60;;;4.30;;
11653;SDS011;5883;48.818;9.114;2023-10-09T13:20:19;10.27;;;4.35;;
11653;SDS011;5883;48.818;9.114;2023-10-09T13:23:05;8.65;;;4.07;;
11653;SDS011;5883;48.818;9.114;2023-10-09T13:25:51;10.75;;;4.55;;
11653;SDS011;5883;48.818;9.114;2023-10-09T13:28:36;12.75;;;4.95;;
11653;SDS011;5883;48.818;9.114;2023-10-09T13:31:26;7.97;;;4.82;;
11653;SDS011;5883;48.818;9.114;2023-10-09T13:34:12;8.93;;;4.85;;
11653;SDS011;5883;48.818;9.114;2023-10-09T13:36:59;9.60;;;5.32;;
11653;SDS011;5883;48.818;9.114;2023-10-09T13:39:52;10.63;;;5.00;;
11653;SDS011;5883;48.818;9.114;2023-10-09T13:42:39;8.77;;;5.03;;
11653;SDS011;5883;48.818;9.114;2023-10-09T13:45:25;9.98;;;4.53;;
11653;SDS011;5883;48.818;9.114;2023-10-09T13:48:13;9.13;;;4.63;;
11653;SDS011;5883;48.818;9.114;2023-10-09T13:51:01;9.10;;;5.15;;
11653;SDS011;5883;48.818;9.114;2023-10-09T13:53:50;11.27;;;4.95;;
11653;SDS011;5883;48.818;9.114;2023-10-09T13:56:35;9.60;;;4.80;;
11653;SDS011;5883;48.818;9.114;2023-10-09T13:59:23;9.13;;;4.47;;
11653;SDS011;5883;48.818;9.114;2023-10-09T14:02:09;10.05;;;4.95;;
11653;SDS011;5883;48.818;9.114;2023-10-09T14:05:02;6.75;;;4.60;;
11653;SDS011;5883;48.818;9.114;2023-10-09T14:07:47;6.53;;;4.10;;
11653;SDS011;5883;48.818;9.114;2023-10-09T14:10:32;9.25;;;4.38;;
11653;SDS011;5883;48.818;9.114;2023-10-09T14:13:22;7.93;;;4.88;;
11653;SDS011;5883;48.818;9.114;2023-10-09T14:16:12;7.15;;;4.15;;
11653;SDS011;5883;48.818;9.114;2023-10-09T14:19:07;10.18;;;5.78;;
11653;SDS011;5883;48.818;9.114;2023-10-09T14:21:58;7.30;;;3.97;;
11653;SDS011;5883;48.818;9.114;2023-10-09T14:24:43;10.60;;;4.95;;
11653;SDS011;5883;48.818;9.114;2023-10-09T14:27:28;8.57;;;4.32;;
11653;SDS011;5883;48.818;9.114;2023-10-09T14:30:14;8.68;;;4.25;;
11653;SDS011;5883;48.818;9.114;2023-10-09T14:33:07;8.15;;;4.10;;
11653;SDS011;5883;48.818;9.114;2023-10-09T14:35:56;10.70;;;4.80;;
11653;SDS011;5883;48.818;9.114;2023-10-09T14:38:43;7.88;;;4.30;;
11653;SDS011;5883;48.818;9.114;2023-10-09T14:41:30;11.05;;;4.18;;
11653;SDS011;5883;48.818;9.114;2023-10-09T14:44:17;15.18;;;4.65;;
11653;SDS011;5883;48.818;9.114;2023-10-09T14:47:02;9.85;;;4.65;;
11653;SDS011;5883;48.818;9.114;2023-10-09T14:49:49;10.65;;;4.57;;
11653;SDS011;5883;48.818;9.114;2023-10-09T14:52:37;7.90;;;4.07;;
11653;SDS011;5883;48.818;9.114;2023-10-09T14:55:24;11.98;;;4.55;;
11653;SDS011;5883;48.818;9.114;2023-10-09T14:58:13;13.05;;;4.68;;
11653;SDS011;5883;48.818;9.114;2023-10-09T15:01:06;10.18;;;4.63;;
11653;SDS011;5883;48.818;9.114;2023-10-09T15:03:53;8.50;;;4.38;;
11653;SDS011;5883;48.818;9.114;2023-10-09T15:06:41;6.93;;;4.05;;
11653;SDS011;5883;48.818;9.114;2023-10-09T15:09:25;11.23;;;5.07;;
11653;SDS011;5883;48.818;9.114;2023-10-09T15:12:14;13.35;;;5.05;;
11653;SDS011;5883;48.818;9.114;2023-10-09T15:14:59;8.75;;;4.43;;
11653;SDS011;5883;48.818;9.114;2023-10-09T15:17:44;11.23;;;4.88;;
11653;SDS011;5883;48.818;9.114;2023-10-09T15:20:31;12.35;;;4.78;;
11653;SDS011;5883;48.818;9.114;2023-10-09T15:23:17;7.15;;;4.13;;
11653;SDS011;5883;48.818;9.114;2023-10-09T15:26:03;10.30;;;5.05;;
11653;SDS011;5883;48.818;9.114;2023-10-09T15:28:52;10.35;;;5.25;;
11653;SDS011;5883;48.818;9.114;2023-10-09T15:31:37;11.25;;;4.85;;
11653;SDS011;5883;48.818;9.114;2023-10-09T15:34:24;11.30;;;5.30;;
11653;SDS011;5883;48.818;9.114;2023-10-09T15:37:11;13.25;;;5.70;;
11653;SDS011;5883;48.818;9.114;2023-10-09T15:39:57;13.48;;;5.22;;
11653;SDS011;5883;48.818;9.114;2023-10-09T15:42:48;11.32;;;4.78;;
11653;SDS011;5883;48.818;9.114;2023-10-09T15:45:36;10.75;;;5.00;;
11653;SDS011;5883;48.818;9.114;2023-10-09T15:48:25;10.82;;;5.30;;
11653;SDS011;5883;48.818;9.114;2023-10-09T15:51:10;14.55;;;5.78;;
11653;SDS011;5883;48.818;9.114;2023-10-09T15:53:58;11.80;;;5.00;;
11653;SDS011;5883;48.818;9.114;2023-10-09T15:56:45;11.35;;;5.35;;
11653;SDS011;5883;48.818;9.114;2023-10-09T15:59:30;14.63;;;5.57;;
11653;SDS011;5883;48.818;9.114;2023-10-09T16:02:17;15.52;;;5.32;;
11653;SDS011;5883;48.818;9.114;2023-10-09T16:05:03;12.38;;;6.25;;
11653;SDS011;5883;48.818;9.114;2023-10-09T16:07:49;17.50;;;6.30;;
11653;SDS011;5883;48.818;9.114;2023-10-09T16:10:34;11.88;;;5.13;;
11653;SDS011;5883;48.818;9.114;2023-10-09T16:13:19;9.90;;;5.30;;
11653;SDS011;5883;48.818;9.114;2023-10-09T16:16:05;14.13;;;6.22;;
11653;SDS011;5883;48.818;9.114;2023-10-09T16:18:53;13.57;;;6.15;;
11653;SDS011;5883;48.818;9.114;2023-10-09T16:21:38;17.80;;;6.28;;
11653;SDS011;5883;48.818;9.114;2023-10-09T16:24:24;11.68;;;5.82;;
11653;SDS011;5883;48.818;9.114;2023-10-09T16:27:09;15.15;;;6.55;;
11653;SDS011;5883;48.818;9.114;2023-10-09T16:29:54;16.85;;;6.22;;
11653;SDS011;5883;48.818;9.114;2023-10-09T16:32:40;11.32;;;5.50;;
11653;SDS011;5883;48.818;9.114;2023-10-09T16:35:27;10.43;;;5.13;;
11653;SDS011;5883;48.818;9.114;2023-10-09T16:38:12;7.78;;;5.25;;
11653;SDS011;5883;48.818;9.114;2023-10-09T16:40:57;12.63;;;5.53;;
11653;SDS011;5883;48.818;9.114;2023-10-09T16:43:45;11.48;;;4.95;;
11653;SDS011;5883;48.818;9.114;2023-10-09T16:46:30;9.93;;;5.15;;
11653;SDS011;5883;48.818;9.114;2023-10-09T16:49:15;12.32;;;5.85;;
11653;SDS011;5883;48.818;9.114;2023-10-09T16:52:03;16.80;;;5.18;;
11653;SDS011;5883;48.818;9.114;2023-10-09T16:54:54;21.83;;;5.38;;
11653;SDS011;5883;48.818;9.114;2023-10-09T16:57:40;15.85;;;6.45;;
11653;SDS011;5883;48.818;9.114;2023-10-09T17:00:27;8.88;;;5.20;;
11653;SDS011;5883;48.818;9.114;2023-10-09T17:03:18;17.05;;;5.63;;
11653;SDS011;5883;48.818;9.114;2023-10-09T17:06:03;10.88;;;5.20;;
11653;SDS011;5883;48.818;9.114;2023-10-09T17:08:51;11.18;;;5.60;;
11653;SDS011;5883;48.818;9.114;2023-10-09T17:11:37;13.07;;;6.25;;
11653;SDS011;5883;48.818;9.114;2023-10-09T17:14:23;12.55;;;5.63;;
11653;SDS011;5883;48.818;9.114;2023-10-09T17:17:09;16.83;;;5.93;;